Lake Worth, FL (33462)

1:39 AM EDT on June 23, 2017 (GMT -0400)
TWO GEMS Wind & Weather | | Change Station

Elev 14 ft 26.59 °N, 80.11 °W | Updated 76 days ago

Clear
Clear
78.3 °F
Feels Like 78 °F
N
0.0
Wind Variable Wind from WSW
Gusts 0.0 mph

Today
High -- | Low -- °F
--% Chance of Precip.
Yesterday
High -- | Low -- °F
Precip. -- in
Pressure 30.08 in
Visibility 10.0 miles
Clouds Few 2000 ft
Heat Index 78 °F
Dew Point 43 °F
Humidity 29%
Rainfall 0.00 in
Snow Depth Not available.
6:28 AM 8:16 PM
Waning Crescent, 1% visible
METAR KPBI 230453Z 12009KT 10SM FEW020 28/22 A3008 RMK AO2 SLP184 T02780217 403110272
Pressure 30.08 in
Visibility 10.0 miles
Clouds Few 2000 ft
Heat Index 78 °F
Dew Point 43 °F
Humidity 29%
Rainfall 0.00 in
Snow Depth Not available.
6:28 AM 8:16 PM
Waning Crescent, 1% visible
METAR KPBI 230453Z 12009KT 10SM FEW020 28/22 A3008 RMK AO2 SLP184 T02780217 403110272

Get Severe Weather Alerts

Thanks for signing up!

Be on the lookout for a verification email in your inbox.

You'll start receiving the daily forecast at 6 AM.

×

10-Day Weather Forecast

Almanac

Astronomy

Jun. 23, 2017 Rise Set
Actual Time
Civil Twilight
Nautical Twilight
Astronomical Twilight
Moon
Length of Visible Light
Length of Day
Tomorrow will be .
, % of the Moon is Illuminated

Today's Extremes

State Highs State Lows

Community

WunderPhotos

Category 6

Welcome to Category 6. This is the collective home for Weather Underground's featured writeups by Dr. Jeff Masters (right), Bob Henson (left), Chris Burt, and other regular contributors.

Nearby

Air Quality

  Air Quality AQ Index Pollutant
Not available.

Snow Depth

Station Depth Elevation

Earthquake Activity

City Distance Mag. Time & Date
Minimum magnitude displayed is 2.5.

Coastal Water Temperatures

Place Temperature

Stations

Nearby Weather Stations

Station Location Temp. Windchill Dew Point Humidity Wind Precip. Elev Updated Type
                   

Watches & Warnings

There are currently no watches in effect.